Time;durP1;ratioP1;P1;durP2;ratioP2;P2;SDS_P1;SDS_P2;PMS_P1;PMS_P2;Temp;Humidity;BMP_temperature;BMP_pressure;BME280_temperature;BME280_humidity;BME280_pressure;Samples;Min_cycle;Max_cycle;Signal;HPM_P1;HPM_P2
2022/02/23 00:00:18;;;;;;;1.50;0.50;;;;;;;;;;5091945;28;20127;-46
2022/02/23 00:02:44;;;;;;;0.93;0.65;;;;;;;;;;5091445;28;20047;-45
2022/02/23 00:05:10;;;;;;;1.77;0.70;;;;;;;;;;5092450;28;20036;-49
2022/02/23 00:07:37;;;;;;;1.95;0.75;;;;;;;;;;5092316;28;20032;-48
2022/02/23 00:10:03;;;;;;;0.88;0.50;;;;;;;;;;5091206;28;20032;-48
2022/02/23 00:12:29;;;;;;;1.75;0.90;;;;;;;;;;5091935;28;20072;-48
2022/02/23 00:14:57;;;;;;;0.90;0.50;;;;;;;;;;5091193;28;20059;-49
2022/02/23 00:17:25;;;;;;;1.08;0.63;;;;;;;;;;5091744;28;20020;-47
2022/02/23 00:19:51;;;;;;;1.23;0.50;;;;;;;;;;5091365;28;20028;-48
2022/02/23 00:22:17;;;;;;;0.73;0.55;;;;;;;;;;5091594;28;20032;-50
2022/02/23 00:24:43;;;;;;;1.58;0.80;;;;;;;;;;5091308;28;20028;-53
2022/02/23 00:27:09;;;;;;;1.75;0.88;;;;;;;;;;5091904;28;20077;-46
2022/02/23 00:29:38;;;;;;;1.75;0.85;;;;;;;;;;5091805;28;20384;-45
2022/02/23 00:32:04;;;;;;;1.63;0.60;;;;;;;;;;5090760;28;20024;-47
2022/02/23 00:34:30;;;;;;;1.05;0.60;;;;;;;;;;5092034;28;20028;-45
2022/02/23 00:36:56;;;;;;;0.85;0.40;;;;;;;;;;5090662;28;20028;-45
2022/02/23 00:39:23;;;;;;;1.27;0.60;;;;;;;;;;5077291;28;20078;-45
2022/02/23 00:41:49;;;;;;;1.20;0.60;;;;;;;;;;5074615;28;20521;-50
2022/02/23 00:44:15;;;;;;;0.70;0.45;;;;;;;;;;5075688;28;20029;-47
2022/02/23 00:46:41;;;;;;;0.50;0.40;;;;;;;;;;5075293;28;20024;-53
2022/02/23 00:49:08;;;;;;;0.75;0.43;;;;;;;;;;5074780;28;20038;-45
2022/02/23 00:51:34;;;;;;;1.67;0.77;;;;;;;;;;5075593;28;20037;-45
2022/02/23 00:54:00;;;;;;;1.48;0.60;;;;;;;;;;5074473;28;20056;-45
2022/02/23 00:56:26;;;;;;;1.05;0.50;;;;;;;;;;5075551;28;20025;-45
2022/02/23 00:58:52;;;;;;;1.92;0.68;;;;;;;;;;5074738;28;20047;-45
2022/02/23 01:01:18;;;;;;;0.65;0.45;;;;;;;;;;5075663;28;20525;-52
2022/02/23 01:03:44;;;;;;;1.23;0.60;;;;;;;;;;5074885;28;20074;-55
2022/02/23 01:06:10;;;;;;;0.98;0.38;;;;;;;;;;5075505;28;20029;-45
2022/02/23 01:08:36;;;;;;;0.60;0.40;;;;;;;;;;5074709;28;20029;-46
2022/02/23 01:11:03;;;;;;;0.93;0.60;;;;;;;;;;5074271;28;20077;-46
2022/02/23 01:13:30;;;;;;;3.63;0.65;;;;;;;;;;5074990;28;20104;-45
2022/02/23 01:15:56;;;;;;;1.48;0.50;;;;;;;;;;5074317;28;20359;-45
2022/02/23 01:18:22;;;;;;;1.38;0.57;;;;;;;;;;5075064;28;20028;-45
2022/02/23 01:20:48;;;;;;;0.70;0.38;;;;;;;;;;5074248;28;20506;-45
2022/02/23 01:23:14;;;;;;;0.68;0.40;;;;;;;;;;5075021;28;20111;-46
2022/02/23 01:25:41;;;;;;;1.20;0.70;;;;;;;;;;5075101;28;20036;-46
2022/02/23 01:28:07;;;;;;;1.05;0.47;;;;;;;;;;5074344;28;20133;-46
2022/02/23 01:30:34;;;;;;;0.73;0.35;;;;;;;;;;5074466;28;20390;-45
2022/02/23 01:33:00;;;;;;;1.00;0.40;;;;;;;;;;5074014;28;20051;-45
2022/02/23 01:35:26;;;;;;;0.47;0.30;;;;;;;;;;5074892;28;20100;-45
2022/02/23 01:37:53;;;;;;;0.90;0.40;;;;;;;;;;5073715;28;20049;-46
2022/02/23 01:40:20;;;;;;;0.40;0.30;;;;;;;;;;5074381;28;20024;-46
2022/02/23 01:42:46;;;;;;;2.20;0.77;;;;;;;;;;5074202;28;20527;-55
2022/02/23 01:45:12;;;;;;;0.50;0.40;;;;;;;;;;5074323;28;20036;-46
2022/02/23 01:47:38;;;;;;;0.98;0.50;;;;;;;;;;5074468;28;20131;-46
2022/02/23 01:50:06;;;;;;;0.65;0.32;;;;;;;;;;5072935;28;20634;-49
2022/02/23 01:52:32;;;;;;;1.00;0.55;;;;;;;;;;5074374;28;20051;-45
2022/02/23 01:54:58;;;;;;;1.20;0.45;;;;;;;;;;5073207;28;20024;-45
2022/02/23 01:57:24;;;;;;;1.50;0.40;;;;;;;;;;5074520;28;20032;-45
2022/02/23 01:59:50;;;;;;;1.02;0.40;;;;;;;;;;5072987;28;20496;-45
2022/02/23 02:02:16;;;;;;;1.15;0.50;;;;;;;;;;5074285;28;20033;-46
2022/02/23 02:04:42;;;;;;;0.75;0.38;;;;;;;;;;5074195;28;20025;-46
2022/02/23 02:07:08;;;;;;;1.08;0.47;;;;;;;;;;5073519;28;20032;-45
2022/02/23 02:09:35;;;;;;;0.28;0.28;;;;;;;;;;5074336;28;20374;-47
2022/02/23 02:12:01;;;;;;;1.15;0.55;;;;;;;;;;5072897;28;20042;-47
2022/02/23 02:14:27;;;;;;;1.77;0.30;;;;;;;;;;5073508;28;20473;-50
2022/02/23 02:16:53;;;;;;;0.40;0.30;;;;;;;;;;5073422;28;20030;-46
2022/02/23 02:19:19;;;;;;;0.75;0.60;;;;;;;;;;5073911;28;20282;-48
2022/02/23 02:21:56;;;;;;;0.68;0.52;;;;;;;;;;5073234;28;20032;-56
2022/02/23 02:24:23;;;;;;;2.35;0.57;;;;;;;;;;5072659;28;20456;-46
2022/02/23 02:26:49;;;;;;;1.15;0.32;;;;;;;;;;5073136;28;20017;-45
2022/02/23 02:29:15;;;;;;;0.82;0.40;;;;;;;;;;5073406;28;20107;-46
2022/02/23 02:31:42;;;;;;;0.73;0.63;;;;;;;;;;5073424;28;20032;-48
2022/02/23 02:34:08;;;;;;;2.55;0.70;;;;;;;;;;5072520;28;20032;-48
2022/02/23 02:36:34;;;;;;;1.88;0.50;;;;;;;;;;5073505;28;20367;-49
2022/02/23 02:39:00;;;;;;;0.60;0.40;;;;;;;;;;5072328;28;20059;-47
2022/02/23 02:41:26;;;;;;;1.90;0.40;;;;;;;;;;5073517;28;20020;-49
2022/02/23 02:43:52;;;;;;;0.45;0.40;;;;;;;;;;5054714;28;20116;-49
2022/02/23 02:46:18;;;;;;;1.40;0.73;;;;;;;;;;5073150;28;20024;-48
2022/02/23 02:48:44;;;;;;;0.93;0.40;;;;;;;;;;5073004;28;20082;-50
2022/02/23 02:51:09;;;;;;;1.27;0.47;;;;;;;;;;5072001;28;20436;-46
2022/02/23 02:53:35;;;;;;;0.75;0.50;;;;;;;;;;5073656;28;20069;-46
2022/02/23 02:56:01;;;;;;;1.15;0.50;;;;;;;;;;5072289;28;20474;-45
2022/02/23 02:58:29;;;;;;;0.95;0.40;;;;;;;;;;5067994;28;20028;-45
2022/02/23 03:00:55;;;;;;;0.90;0.70;;;;;;;;;;5071289;28;20035;-46
2022/02/23 03:03:21;;;;;;;0.50;0.32;;;;;;;;;;5067413;28;20028;-45
2022/02/23 03:05:47;;;;;;;1.23;0.60;;;;;;;;;;5072221;28;20033;-54
2022/02/23 03:08:14;;;;;;;1.75;0.55;;;;;;;;;;5072794;28;20074;-45
2022/02/23 03:10:40;;;;;;;0.50;0.45;;;;;;;;;;5072684;28;20133;-45
2022/02/23 03:13:06;;;;;;;1.25;0.40;;;;;;;;;;5072309;28;20040;-47
2022/02/23 03:15:32;;;;;;;2.13;0.77;;;;;;;;;;5072729;28;20381;-45
2022/02/23 03:17:58;;;;;;;0.90;0.50;;;;;;;;;;5072194;28;20123;-45
2022/02/23 03:20:25;;;;;;;1.25;0.40;;;;;;;;;;5072566;28;20020;-46
2022/02/23 03:22:51;;;;;;;0.60;0.32;;;;;;;;;;5071208;28;20032;-45
2022/02/23 03:25:17;;;;;;;0.93;0.50;;;;;;;;;;5072234;28;20032;-45
2022/02/23 03:27:43;;;;;;;0.90;0.40;;;;;;;;;;5072699;28;20166;-45
2022/02/23 03:30:09;;;;;;;0.52;0.40;;;;;;;;;;5071635;28;20517;-45
2022/02/23 03:32:35;;;;;;;0.75;0.45;;;;;;;;;;5072248;28;20029;-45
2022/02/23 03:35:01;;;;;;;1.52;0.50;;;;;;;;;;5071593;28;20466;-45
2022/02/23 03:37:27;;;;;;;2.22;0.50;;;;;;;;;;5071969;28;20052;-45
2022/02/23 03:39:53;;;;;;;1.23;0.60;;;;;;;;;;5071790;28;20017;-45
2022/02/23 03:42:19;;;;;;;1.52;0.45;;;;;;;;;;5054496;28;20393;-45
2022/02/23 03:44:45;;;;;;;1.15;0.60;;;;;;;;;;5071912;28;20036;-46
2022/02/23 03:47:11;;;;;;;1.50;0.50;;;;;;;;;;5071555;28;20028;-45
2022/02/23 03:49:37;;;;;;;1.95;0.82;;;;;;;;;;5072313;28;20024;-46
2022/02/23 03:52:03;;;;;;;0.85;0.40;;;;;;;;;;5071234;28;20040;-45
2022/02/23 03:54:29;;;;;;;2.33;0.68;;;;;;;;;;5072593;28;20038;-46
2022/02/23 03:56:55;;;;;;;0.77;0.43;;;;;;;;;;5071174;28;20024;-45
2022/02/23 03:59:21;;;;;;;0.85;0.32;;;;;;;;;;5072393;28;20358;-46
2022/02/23 04:01:47;;;;;;;1.83;0.73;;;;;;;;;;5071831;28;20111;-55
2022/02/23 04:04:16;;;;;;;2.35;0.88;;;;;;;;;;5072053;28;20032;-46
2022/02/23 04:06:42;;;;;;;1.65;1.10;;;;;;;;;;5071224;28;20032;-45
2022/02/23 04:09:09;;;;;;;1.15;0.35;;;;;;;;;;5071025;28;20093;-45
2022/02/23 04:11:35;;;;;;;0.93;0.50;;;;;;;;;;5071839;28;20094;-46
2022/02/23 04:14:01;;;;;;;1.35;0.45;;;;;;;;;;5071297;28;20096;-45
2022/02/23 04:16:27;;;;;;;2.40;0.73;;;;;;;;;;5071872;28;20108;-45
2022/02/23 04:18:54;;;;;;;1.08;0.40;;;;;;;;;;5070831;28;20095;-45
2022/02/23 04:21:20;;;;;;;2.58;1.15;;;;;;;;;;5070860;28;20469;-46
2022/02/23 04:23:46;;;;;;;1.45;0.60;;;;;;;;;;5072053;28;20086;-46
2022/02/23 04:26:13;;;;;;;1.00;0.55;;;;;;;;;;5071089;28;20029;-45
2022/02/23 04:28:39;;;;;;;2.00;0.85;;;;;;;;;;5071580;28;20027;-45
2022/02/23 04:31:05;;;;;;;0.85;0.43;;;;;;;;;;5070270;28;20503;-45
2022/02/23 04:33:31;;;;;;;0.98;0.40;;;;;;;;;;5071884;28;20422;-45
2022/02/23 04:35:57;;;;;;;3.20;0.60;;;;;;;;;;5071129;28;20028;-45
2022/02/23 04:38:23;;;;;;;1.55;0.63;;;;;;;;;;5071358;28;20048;-45
2022/02/23 04:40:50;;;;;;;2.33;0.40;;;;;;;;;;5071361;28;20059;-53
2022/02/23 04:43:16;;;;;;;2.70;0.77;;;;;;;;;;5070931;28;20040;-45
2022/02/23 04:45:42;;;;;;;1.08;0.45;;;;;;;;;;5071839;28;20470;-46
2022/02/23 04:48:08;;;;;;;1.33;0.50;;;;;;;;;;5070568;28;20029;-45
2022/02/23 04:50:35;;;;;;;1.35;0.40;;;;;;;;;;5071449;28;20462;-45
2022/02/23 04:53:01;;;;;;;1.40;0.35;;;;;;;;;;5070547;28;20029;-47
2022/02/23 04:55:27;;;;;;;1.98;0.70;;;;;;;;;;5071667;28;20048;-46
2022/02/23 04:57:53;;;;;;;1.50;0.60;;;;;;;;;;5052806;28;20384;-53
2022/02/23 05:00:19;;;;;;;1.60;0.43;;;;;;;;;;5071310;28;20367;-46
2022/02/23 05:02:45;;;;;;;0.77;0.43;;;;;;;;;;5071048;28;20025;-50
2022/02/23 05:05:11;;;;;;;1.80;0.60;;;;;;;;;;5070923;28;20475;-48
2022/02/23 05:07:37;;;;;;;1.80;0.80;;;;;;;;;;5071334;28;20070;-46
2022/02/23 05:10:04;;;;;;;0.95;0.50;;;;;;;;;;5070480;28;20028;-48
2022/02/23 05:12:34;;;;;;;1.77;0.75;;;;;;;;;;5071173;28;20020;-46
2022/02/23 05:15:00;;;;;;;1.42;0.40;;;;;;;;;;5070642;28;20033;-46
2022/02/23 05:17:26;;;;;;;1.17;0.40;;;;;;;;;;5071390;28;20104;-49
2022/02/23 05:19:52;;;;;;;1.48;0.40;;;;;;;;;;5070669;28;20029;-55
2022/02/23 05:22:18;;;;;;;1.70;0.50;;;;;;;;;;5070873;28;20081;-47
2022/02/23 05:24:44;;;;;;;3.03;0.70;;;;;;;;;;5074044;28;20458;-44
2022/02/23 05:27:10;;;;;;;1.55;0.50;;;;;;;;;;5073916;28;20027;-45
2022/02/23 05:29:36;;;;;;;1.00;0.52;;;;;;;;;;5074475;28;20063;-45
2022/02/23 05:32:02;;;;;;;0.95;0.40;;;;;;;;;;5073966;28;20024;-45
2022/02/23 05:34:28;;;;;;;1.95;0.57;;;;;;;;;;5074861;28;20035;-45
2022/02/23 05:36:54;;;;;;;2.25;0.57;;;;;;;;;;5055813;28;20024;-53
2022/02/23 05:39:21;;;;;;;1.10;0.57;;;;;;;;;;5092995;28;20381;-46
2022/02/23 05:41:47;;;;;;;2.38;0.73;;;;;;;;;;5093758;28;20097;-45
2022/02/23 05:44:13;;;;;;;1.08;0.90;;;;;;;;;;5094080;28;20099;-46
2022/02/23 05:46:39;;;;;;;2.80;0.70;;;;;;;;;;5094819;28;20094;-45
2022/02/23 05:49:05;;;;;;;1.40;0.52;;;;;;;;;;5094093;28;20110;-45
2022/02/23 05:51:36;;;;;;;2.05;0.88;;;;;;;;;;5094641;28;20028;-47
2022/02/23 05:54:03;;;;;;;1.23;0.50;;;;;;;;;;5093524;28;20032;-46
2022/02/23 05:56:30;;;;;;;1.50;0.57;;;;;;;;;;5094667;28;20024;-46
2022/02/23 05:58:56;;;;;;;1.20;0.60;;;;;;;;;;5093304;28;20207;-48
2022/02/23 06:01:22;;;;;;;2.60;0.50;;;;;;;;;;5094498;28;20038;-46
2022/02/23 06:03:48;;;;;;;1.65;0.73;;;;;;;;;;5094108;28;20066;-47
2022/02/23 06:06:14;;;;;;;4.00;0.60;;;;;;;;;;5093804;28;20024;-48
2022/02/23 06:08:40;;;;;;;1.92;0.70;;;;;;;;;;5082709;28;20024;-47
2022/02/23 06:11:08;;;;;;;4.18;1.02;;;;;;;;;;5083938;28;20048;-46
2022/02/23 06:13:34;;;;;;;4.53;0.77;;;;;;;;;;5084731;28;20413;-45
2022/02/23 06:16:01;;;;;;;2.78;1.30;;;;;;;;;;5086294;28;20024;-45
2022/02/23 06:18:27;;;;;;;3.03;1.05;;;;;;;;;;5089425;28;20035;-46
2022/02/23 06:20:56;;;;;;;3.40;1.15;;;;;;;;;;5093777;28;20468;-53
2022/02/23 06:23:23;;;;;;;7.00;1.20;;;;;;;;;;5093746;28;20032;-48
2022/02/23 06:25:49;;;;;;;4.55;1.48;;;;;;;;;;5093967;28;20368;-46
2022/02/23 06:28:15;;;;;;;2.42;1.05;;;;;;;;;;5093467;28;20024;-46
2022/02/23 06:30:42;;;;;;;3.08;1.38;;;;;;;;;;5093989;28;20097;-46
2022/02/23 06:33:08;;;;;;;4.75;1.20;;;;;;;;;;5093006;28;20032;-47
2022/02/23 06:35:34;;;;;;;2.53;0.88;;;;;;;;;;5093877;28;20423;-45
2022/02/23 06:38:01;;;;;;;3.13;1.00;;;;;;;;;;5092830;28;20048;-46
2022/02/23 06:40:27;;;;;;;4.65;1.17;;;;;;;;;;5092451;28;20028;-47
2022/02/23 06:42:53;;;;;;;2.50;0.90;;;;;;;;;;5093239;28;20038;-55
2022/02/23 06:45:20;;;;;;;4.28;1.10;;;;;;;;;;5093249;28;20040;-45
2022/02/23 06:47:46;;;;;;;2.83;0.95;;;;;;;;;;5093456;28;20035;-45
2022/02/23 06:50:12;;;;;;;2.38;1.20;;;;;;;;;;5092862;28;20028;-45
2022/02/23 06:52:38;;;;;;;2.50;1.13;;;;;;;;;;5093491;28;20551;-46
2022/02/23 06:55:05;;;;;;;2.05;0.85;;;;;;;;;;5092913;28;20089;-46
2022/02/23 06:57:41;;;;;;;2.78;1.15;;;;;;;;;;5086525;28;20099;-47
2022/02/23 07:00:09;;;;;;;3.90;0.95;;;;;;;;;;5109787;28;20030;-46
2022/02/23 07:02:35;;;;;;;1.73;0.70;;;;;;;;;;5111473;28;20039;-45
2022/02/23 07:05:02;;;;;;;2.67;1.17;;;;;;;;;;5092162;28;20451;-47
2022/02/23 07:07:28;;;;;;;2.67;0.93;;;;;;;;;;5092882;28;20028;-47
2022/02/23 07:09:54;;;;;;;2.80;0.75;;;;;;;;;;5092355;28;20039;-53
2022/02/23 07:12:20;;;;;;;5.95;1.00;;;;;;;;;;5092837;28;20028;-46
2022/02/23 07:14:46;;;;;;;4.30;1.08;;;;;;;;;;5092003;28;20481;-46
2022/02/23 07:17:12;;;;;;;3.75;1.42;;;;;;;;;;5092624;28;20032;-46
2022/02/23 07:19:39;;;;;;;6.30;1.08;;;;;;;;;;5092893;28;20104;-45
2022/02/23 07:22:05;;;;;;;3.67;0.90;;;;;;;;;;5092056;28;20030;-47
2022/02/23 07:24:32;;;;;;;9.23;1.35;;;;;;;;;;5092120;28;20020;-49
2022/02/23 07:26:59;;;;;;;4.82;1.15;;;;;;;;;;5091010;28;20035;-55
2022/02/23 07:29:25;;;;;;;3.72;0.70;;;;;;;;;;5092520;28;20098;-50
2022/02/23 07:31:51;;;;;;;3.08;1.13;;;;;;;;;;5092453;28;20024;-48
2022/02/23 07:34:18;;;;;;;6.68;1.35;;;;;;;;;;5091556;28;20031;-51
2022/02/23 07:36:44;;;;;;;4.68;1.33;;;;;;;;;;5092724;28;20020;-47
2022/02/23 07:39:11;;;;;;;3.88;1.10;;;;;;;;;;5073492;28;20521;-47
2022/02/23 07:41:37;;;;;;;3.75;0.90;;;;;;;;;;5071646;28;20054;-48
2022/02/23 07:44:03;;;;;;;4.13;1.10;;;;;;;;;;5071098;28;20103;-47
2022/02/23 07:46:31;;;;;;;4.03;1.00;;;;;;;;;;5064539;28;20071;-46
2022/02/23 07:49:01;;;;;;;3.28;1.00;;;;;;;;;;5069164;28;20036;-54
2022/02/23 07:51:27;;;;;;;6.88;1.35;;;;;;;;;;5071826;28;20481;-47
2022/02/23 07:53:55;;;;;;;5.57;1.27;;;;;;;;;;5068906;28;20029;-48
2022/02/23 07:56:22;;;;;;;3.55;1.50;;;;;;;;;;5050617;28;20048;-53
2022/02/23 07:58:48;;;;;;;3.50;1.10;;;;;;;;;;5057146;28;20078;-48
2022/02/23 08:01:34;;;;;;;4.00;1.23;;;;;;;;;;5070797;28;20032;-45
2022/02/23 08:04:00;;;;;;;2.22;0.82;;;;;;;;;;5070487;28;20028;-53
2022/02/23 08:06:27;;;;;;;4.95;1.30;;;;;;;;;;5071122;28;20432;-45
2022/02/23 08:08:56;;;;;;;3.20;1.10;;;;;;;;;;5070440;28;20052;-46
2022/02/23 08:11:23;;;;;;;4.78;1.30;;;;;;;;;;5069673;28;20529;-46
2022/02/23 08:13:51;;;;;;;5.05;0.90;;;;;;;;;;5070983;28;20024;-47
2022/02/23 08:21:53;;;;;;;2.00;0.95;;;;;;;;;;5064800;28;20083;-46
2022/02/23 08:24:19;;;;;;;4.18;1.27;;;;;;;;;;5070904;28;20034;-45
2022/02/23 08:26:45;;;;;;;4.22;1.40;;;;;;;;;;5071179;28;20103;-45
2022/02/23 08:29:11;;;;;;;3.35;1.00;;;;;;;;;;5070467;28;20021;-46
2022/02/23 08:31:37;;;;;;;2.28;0.90;;;;;;;;;;5071043;28;20029;-46
2022/02/23 08:34:03;;;;;;;2.75;1.45;;;;;;;;;;5070294;28;20103;-45
2022/02/23 08:36:29;;;;;;;2.67;0.88;;;;;;;;;;5070638;28;20020;-47
2022/02/23 08:38:55;;;;;;;2.38;0.93;;;;;;;;;;5071226;28;20056;-47
2022/02/23 08:41:24;;;;;;;3.53;0.77;;;;;;;;;;5052521;28;20028;-47
2022/02/23 08:43:50;;;;;;;1.98;0.70;;;;;;;;;;5071741;28;20029;-46
2022/02/23 08:46:16;;;;;;;2.15;0.90;;;;;;;;;;5070173;28;20012;-49
2022/02/23 08:48:42;;;;;;;3.22;1.25;;;;;;;;;;5071254;28;20079;-46
2022/02/23 08:51:08;;;;;;;1.85;0.80;;;;;;;;;;5070340;28;20021;-46
2022/02/23 08:53:34;;;;;;;2.17;0.98;;;;;;;;;;5071750;28;20377;-46
2022/02/23 08:56:00;;;;;;;1.60;0.80;;;;;;;;;;5070863;28;20021;-54
2022/02/23 08:58:26;;;;;;;3.28;1.23;;;;;;;;;;5071154;28;20056;-47
2022/02/23 09:00:52;;;;;;;4.28;0.88;;;;;;;;;;5074893;28;20104;-45
2022/02/23 09:03:21;;;;;;;2.53;1.08;;;;;;;;;;5073730;28;20695;-46
2022/02/23 09:05:47;;;;;;;2.40;1.30;;;;;;;;;;5074990;28;20044;-47
2022/02/23 09:08:13;;;;;;;1.90;0.70;;;;;;;;;;5074437;28;20020;-46
2022/02/23 09:10:39;;;;;;;2.28;0.80;;;;;;;;;;5074844;28;20028;-47
2022/02/23 09:13:07;;;;;;;2.97;0.80;;;;;;;;;;5074137;28;20024;-45
2022/02/23 09:15:34;;;;;;;3.60;0.80;;;;;;;;;;5074362;28;20036;-46
2022/02/23 09:18:00;;;;;;;4.07;1.10;;;;;;;;;;5073963;28;20474;-54
2022/02/23 09:20:27;;;;;;;2.58;0.90;;;;;;;;;;5073782;28;20044;-49
2022/02/23 09:22:54;;;;;;;3.05;0.85;;;;;;;;;;5068964;28;20086;-46
2022/02/23 09:25:20;;;;;;;2.45;0.80;;;;;;;;;;5075110;28;20032;-47
2022/02/23 09:27:46;;;;;;;4.03;1.40;;;;;;;;;;5061417;28;20452;-46
2022/02/23 09:30:14;;;;;;;1.40;0.73;;;;;;;;;;5053555;28;20120;-45
2022/02/23 09:32:41;;;;;;;2.60;0.82;;;;;;;;;;5055031;28;20449;-45
2022/02/23 09:35:07;;;;;;;2.17;0.90;;;;;;;;;;5073878;28;20056;-48
2022/02/23 09:37:34;;;;;;;2.15;0.77;;;;;;;;;;5078057;28;20055;-49
2022/02/23 09:40:00;;;;;;;2.15;0.95;;;;;;;;;;5093913;28;20099;-55
2022/02/23 09:42:28;;;;;;;0.95;0.80;;;;;;;;;;5094129;28;20028;-46
2022/02/23 09:44:58;;;;;;;3.50;1.10;;;;;;;;;;5094091;28;20389;-47
2022/02/23 09:47:25;;;;;;;1.58;0.90;;;;;;;;;;5093494;28;20020;-46
2022/02/23 09:49:51;;;;;;;2.92;1.33;;;;;;;;;;5094686;28;20081;-48
2022/02/23 09:52:23;;;;;;;2.72;1.20;;;;;;;;;;5094089;28;20039;-45
2022/02/23 09:54:49;;;;;;;1.52;0.65;;;;;;;;;;5094590;28;20024;-48
2022/02/23 09:57:15;;;;;;;2.53;0.90;;;;;;;;;;5093297;28;20100;-46
2022/02/23 09:59:41;;;;;;;3.22;0.93;;;;;;;;;;5094294;28;20056;-49
2022/02/23 10:02:10;;;;;;;1.85;0.60;;;;;;;;;;5092596;28;20024;-47
2022/02/23 10:04:37;;;;;;;2.92;0.95;;;;;;;;;;5093716;28;20020;-49
2022/02/23 10:07:06;;;;;;;4.43;0.98;;;;;;;;;;5093402;28;20020;-56
2022/02/23 10:09:40;;;;;;;1.85;0.95;;;;;;;;;;5093696;28;20035;-49
2022/02/23 10:12:06;;;;;;;2.15;0.98;;;;;;;;;;5093285;28;20085;-46
2022/02/23 10:14:32;;;;;;;2.90;1.10;;;;;;;;;;5093651;28;20423;-47
2022/02/23 10:16:59;;;;;;;3.20;0.77;;;;;;;;;;5093735;28;20020;-47
2022/02/23 10:19:25;;;;;;;2.17;1.10;;;;;;;;;;5093412;28;20027;-46
2022/02/23 10:21:55;;;;;;;3.00;0.85;;;;;;;;;;5093886;28;20028;-46
2022/02/23 10:24:38;;;;;;;2.50;1.60;;;;;;;;;;5093175;28;20027;-46
2022/02/23 10:27:11;;;;;;;3.30;0.93;;;;;;;;;;5092921;28;20050;-55
2022/02/23 10:29:38;;;;;;;3.60;1.13;;;;;;;;;;5093410;28;20047;-49
2022/02/23 10:32:11;;;;;;;4.45;1.02;;;;;;;;;;5092905;28;20023;-55
2022/02/23 10:34:47;;;;;;;2.72;0.80;;;;;;;;;;5093021;28;20463;-47
2022/02/23 10:37:18;;;;;;;1.90;0.88;;;;;;;;;;5091799;28;20055;-49
2022/02/23 10:39:45;;;;;;;2.50;1.15;;;;;;;;;;5073198;28;20024;-48
2022/02/23 10:42:20;;;;;;;1.70;0.80;;;;;;;;;;5072666;28;20032;-46
2022/02/23 10:44:46;;;;;;;3.85;0.80;;;;;;;;;;5073512;28;20056;-47
2022/02/23 10:47:13;;;;;;;3.50;1.13;;;;;;;;;;5072069;28;20032;-47
2022/02/23 10:49:39;;;;;;;1.60;0.95;;;;;;;;;;5065469;28;20035;-46
2022/02/23 10:52:09;;;;;;;2.03;0.82;;;;;;;;;;5071966;28;20042;-50
2022/02/23 10:54:36;;;;;;;1.88;0.90;;;;;;;;;;5072528;28;20051;-46
2022/02/23 10:57:17;;;;;;;2.58;1.00;;;;;;;;;;5069567;28;20100;-55
2022/02/23 10:59:43;;;;;;;1.77;0.87;;;;;;;;;;5072467;28;20107;-48
2022/02/23 11:02:09;;;;;;;3.03;1.30;;;;;;;;;;5071704;28;20024;-48
2022/02/23 11:04:35;;;;;;;1.15;0.68;;;;;;;;;;5071691;28;20063;-45
2022/02/23 11:07:01;;;;;;;2.05;0.80;;;;;;;;;;5072359;28;20021;-52
2022/02/23 11:09:32;;;;;;;1.30;0.80;;;;;;;;;;5071504;28;20055;-49
2022/02/23 11:11:59;;;;;;;1.70;0.95;;;;;;;;;;5072744;28;20382;-47
2022/02/23 11:14:25;;;;;;;1.17;0.60;;;;;;;;;;5071900;28;20051;-47
2022/02/23 11:16:52;;;;;;;2.42;0.82;;;;;;;;;;5072319;28;20028;-49
2022/02/23 11:19:21;;;;;;;2.25;1.05;;;;;;;;;;5070762;28;20024;-52
2022/02/23 11:21:47;;;;;;;1.15;0.63;;;;;;;;;;5071487;28;20036;-47
2022/02/23 11:24:14;;;;;;;3.58;0.55;;;;;;;;;;5071043;28;20062;-47
2022/02/23 11:26:42;;;;;;;1.95;0.70;;;;;;;;;;5070602;28;20028;-45
2022/02/23 11:29:23;;;;;;;1.48;0.70;;;;;;;;;;5071101;28;20531;-51
2022/02/23 11:31:50;;;;;;;1.92;0.70;;;;;;;;;;5071474;28;20439;-49
2022/02/23 11:34:18;;;;;;;1.75;1.10;;;;;;;;;;5071492;28;20054;-50
2022/02/23 11:36:45;;;;;;;1.48;0.90;;;;;;;;;;5072210;28;20021;-46
2022/02/23 11:39:14;;;;;;;1.92;1.05;;;;;;;;;;5088703;28;20048;-45
2022/02/23 11:41:41;;;;;;;2.55;0.77;;;;;;;;;;5092639;28;20115;-45
2022/02/23 11:44:11;;;;;;;2.47;1.25;;;;;;;;;;5091044;28;20384;-49
2022/02/23 11:46:56;;;;;;;1.50;1.00;;;;;;;;;;5092044;28;20050;-46
2022/02/23 11:55:15;;;;;;;1.92;0.70;;;;;;;;;;5091600;28;20028;-47
2022/02/23 12:00:45;;;;;;;2.25;0.80;;;;;;;;;;5071671;28;20066;-47
2022/02/23 12:03:12;;;;;;;2.70;1.15;;;;;;;;;;5070169;28;20028;-54
2022/02/23 12:05:46;;;;;;;1.63;0.85;;;;;;;;;;5109362;28;20026;-49
2022/02/23 12:08:31;;;;;;;1.60;0.82;;;;;;;;;;5077533;28;20046;-49
2022/02/23 12:10:57;;;;;;;2.80;0.93;;;;;;;;;;5092348;28;20418;-49
2022/02/23 12:13:41;;;;;;;1.90;1.17;;;;;;;;;;5091233;28;20464;-49
2022/02/23 12:16:33;;;;;;;1.75;0.82;;;;;;;;;;5091572;28;20012;-52
2022/02/23 12:19:00;;;;;;;1.95;0.80;;;;;;;;;;5091839;28;20024;-50
2022/02/23 12:21:39;;;;;;;2.05;1.17;;;;;;;;;;5091203;28;20394;-49
2022/02/23 12:24:06;;;;;;;3.67;0.90;;;;;;;;;;5091738;28;20097;-55
2022/02/23 12:26:36;;;;;;;1.65;0.63;;;;;;;;;;5090378;28;20020;-46
2022/02/23 12:29:03;;;;;;;1.60;0.70;;;;;;;;;;5091321;28;20020;-46
2022/02/23 12:31:30;;;;;;;1.23;0.88;;;;;;;;;;5091186;28;20024;-48
2022/02/23 12:34:07;;;;;;;1.42;0.70;;;;;;;;;;5091497;28;20384;-48
2022/02/23 12:36:36;;;;;;;2.78;1.13;;;;;;;;;;5076450;28;20111;-46
2022/02/23 12:39:03;;;;;;;1.40;0.50;;;;;;;;;;5064596;28;20098;-47
2022/02/23 12:41:31;;;;;;;1.85;0.75;;;;;;;;;;5069795;28;20100;-46
2022/02/23 12:43:59;;;;;;;4.78;1.00;;;;;;;;;;5070906;28;20107;-47
2022/02/23 12:46:25;;;;;;;0.70;0.43;;;;;;;;;;5062682;28;20919;-47
2022/02/23 12:48:54;;;;;;;1.70;0.70;;;;;;;;;;5051009;28;20079;-49
2022/02/23 12:51:22;;;;;;;1.70;0.70;;;;;;;;;;5064681;28;20031;-50
2022/02/23 12:53:50;;;;;;;2.17;0.65;;;;;;;;;;5071393;28;20017;-50
2022/02/23 12:56:30;;;;;;;1.42;0.70;;;;;;;;;;5070609;28;20036;-47
2022/02/23 12:58:57;;;;;;;1.38;0.70;;;;;;;;;;5071243;28;20036;-48
2022/02/23 13:01:24;;;;;;;2.15;0.60;;;;;;;;;;5068919;28;20024;-50
2022/02/23 13:03:58;;;;;;;3.25;1.48;;;;;;;;;;5070836;28;20474;-47
2022/02/23 13:06:31;;;;;;;2.25;0.77;;;;;;;;;;5070582;28;20086;-47
2022/02/23 13:09:00;;;;;;;0.90;0.50;;;;;;;;;;5071269;28;20031;-46
2022/02/23 13:11:30;;;;;;;0.95;0.52;;;;;;;;;;5070222;28;20054;-46
2022/02/23 13:14:00;;;;;;;1.88;0.80;;;;;;;;;;5071059;28;20031;-47
2022/02/23 13:16:27;;;;;;;2.17;0.70;;;;;;;;;;5067988;28;20286;-48
2022/02/23 13:19:01;;;;;;;1.80;0.60;;;;;;;;;;5065454;28;20025;-47
2022/02/23 13:21:37;;;;;;;1.05;0.65;;;;;;;;;;5070496;28;20016;-47
2022/02/23 13:24:03;;;;;;;1.30;0.60;;;;;;;;;;5071028;28;20129;-48
2022/02/23 13:26:33;;;;;;;1.58;0.85;;;;;;;;;;5070288;28;20869;-47
2022/02/23 13:29:08;;;;;;;1.15;0.60;;;;;;;;;;5071158;28;20025;-46
2022/02/23 13:31:41;;;;;;;1.02;0.40;;;;;;;;;;5070641;28;20024;-50
2022/02/23 13:34:22;;;;;;;2.70;0.90;;;;;;;;;;5070221;28;20521;-53
2022/02/23 13:36:48;;;;;;;1.55;0.60;;;;;;;;;;5070645;28;20480;-47
2022/02/23 13:39:22;;;;;;;1.08;0.60;;;;;;;;;;5087746;28;20055;-47
2022/02/23 13:41:59;;;;;;;0.88;0.50;;;;;;;;;;5088872;28;20059;-46
2022/02/23 13:44:27;;;;;;;0.93;0.60;;;;;;;;;;5091348;28;20093;-46
2022/02/23 13:46:57;;;;;;;0.40;0.40;;;;;;;;;;5094305;28;20024;-47
2022/02/23 13:49:23;;;;;;;2.95;0.60;;;;;;;;;;5093059;28;20036;-46
2022/02/23 13:51:49;;;;;;;1.55;0.70;;;;;;;;;;5094274;28;20024;-48
2022/02/23 13:54:16;;;;;;;1.80;0.80;;;;;;;;;;5093097;28;20043;-48
2022/02/23 13:56:43;;;;;;;1.20;0.50;;;;;;;;;;5093889;28;20035;-46
2022/02/23 13:59:10;;;;;;;2.10;0.80;;;;;;;;;;5092762;28;20097;-54
2022/02/23 14:01:36;;;;;;;1.33;0.73;;;;;;;;;;5090105;28;20068;-51
2022/02/23 14:04:08;;;;;;;1.73;0.90;;;;;;;;;;5078979;28;20118;-52
2022/02/23 14:06:35;;;;;;;1.35;0.50;;;;;;;;;;5094573;28;20053;-50
2022/02/23 14:09:03;;;;;;;1.70;0.60;;;;;;;;;;5093289;28;20029;-46
2022/02/23 14:11:33;;;;;;;1.48;0.50;;;;;;;;;;5087296;28;20028;-50
2022/02/23 14:14:12;;;;;;;1.13;0.63;;;;;;;;;;5083175;28;20032;-46
2022/02/23 14:16:41;;;;;;;1.90;1.17;;;;;;;;;;5094349;28;20024;-47
2022/02/23 14:19:14;;;;;;;1.20;0.40;;;;;;;;;;5093636;28;20048;-53
2022/02/23 14:21:40;;;;;;;1.88;0.85;;;;;;;;;;5094090;28;20028;-48
2022/02/23 14:24:09;;;;;;;0.68;0.55;;;;;;;;;;5093017;28;20546;-55
2022/02/23 14:26:35;;;;;;;3.03;0.90;;;;;;;;;;5093164;28;20496;-49
2022/02/23 14:29:03;;;;;;;2.17;0.73;;;;;;;;;;5092115;28;20370;-46
2022/02/23 14:31:42;;;;;;;1.55;0.60;;;;;;;;;;5092209;28;20028;-45
2022/02/23 14:34:15;;;;;;;1.23;0.50;;;;;;;;;;5092842;28;20020;-55
2022/02/23 14:36:41;;;;;;;1.30;0.40;;;;;;;;;;5091957;28;20546;-50
2022/02/23 14:39:07;;;;;;;2.42;0.98;;;;;;;;;;5092770;28;20071;-56
2022/02/23 14:41:33;;;;;;;3.58;0.80;;;;;;;;;;5093228;28;20035;-50
2022/02/23 14:44:00;;;;;;;1.42;0.70;;;;;;;;;;5093718;28;20024;-49
2022/02/23 14:46:26;;;;;;;1.92;0.50;;;;;;;;;;5092108;28;21000;-45
2022/02/23 14:48:57;;;;;;;2.10;0.60;;;;;;;;;;5093340;28;20081;-46
2022/02/23 14:51:23;;;;;;;1.63;0.82;;;;;;;;;;5092510;28;20024;-45
2022/02/23 14:53:49;;;;;;;1.17;0.70;;;;;;;;;;5092377;28;20035;-47
2022/02/23 14:56:16;;;;;;;2.35;0.60;;;;;;;;;;5090824;28;20401;-46
2022/02/23 14:58:42;;;;;;;2.25;0.80;;;;;;;;;;5093285;28;20027;-46